sensor_id;sensor_type;location;lat;lon;timestamp;P1;durP1;ratioP1;P2;durP2;ratioP2
840;SDS011;406;48.566;13.450;2023-12-20T00:01:23;42.97;;;14.68;;
840;SDS011;406;48.566;13.450;2023-12-20T00:03:50;29.45;;;12.77;;
840;SDS011;406;48.566;13.450;2023-12-20T00:06:17;36.22;;;13.85;;
840;SDS011;406;48.566;13.450;2023-12-20T00:08:43;34.47;;;12.40;;
840;SDS011;406;48.566;13.450;2023-12-20T00:11:10;34.80;;;11.70;;
840;SDS011;406;48.566;13.450;2023-12-20T00:13:37;17.35;;;11.60;;
840;SDS011;406;48.566;13.450;2023-12-20T00:16:03;16.00;;;9.95;;
840;SDS011;406;48.566;13.450;2023-12-20T00:18:30;11.80;;;9.75;;
840;SDS011;406;48.566;13.450;2023-12-20T00:20:56;9.93;;;8.95;;
840;SDS011;406;48.566;13.450;2023-12-20T00:23:23;10.20;;;9.20;;
840;SDS011;406;48.566;13.450;2023-12-20T00:25:49;10.40;;;9.32;;
840;SDS011;406;48.566;13.450;2023-12-20T00:28:16;10.02;;;9.02;;
840;SDS011;406;48.566;13.450;2023-12-20T00:30:42;10.60;;;9.50;;
840;SDS011;406;48.566;13.450;2023-12-20T00:33:10;10.32;;;9.20;;
840;SDS011;406;48.566;13.450;2023-12-20T00:35:36;10.18;;;9.13;;
840;SDS011;406;48.566;13.450;2023-12-20T00:38:03;9.20;;;8.30;;
840;SDS011;406;48.566;13.450;2023-12-20T00:40:31;9.60;;;8.60;;
840;SDS011;406;48.566;13.450;2023-12-20T00:42:57;10.18;;;9.18;;
840;SDS011;406;48.566;13.450;2023-12-20T00:45:24;9.23;;;8.32;;
840;SDS011;406;48.566;13.450;2023-12-20T00:47:50;11.52;;;10.23;;
840;SDS011;406;48.566;13.450;2023-12-20T00:50:17;10.05;;;9.10;;
840;SDS011;406;48.566;13.450;2023-12-20T00:52:44;9.40;;;8.45;;
840;SDS011;406;48.566;13.450;2023-12-20T00:55:10;10.32;;;9.23;;
840;SDS011;406;48.566;13.450;2023-12-20T00:57:37;10.60;;;9.60;;
840;SDS011;406;48.566;13.450;2023-12-20T01:00:04;10.13;;;9.13;;
840;SDS011;406;48.566;13.450;2023-12-20T01:02:31;10.30;;;9.27;;
840;SDS011;406;48.566;13.450;2023-12-20T01:04:57;10.57;;;9.48;;
840;SDS011;406;48.566;13.450;2023-12-20T01:07:24;9.85;;;8.77;;
840;SDS011;406;48.566;13.450;2023-12-20T01:09:50;11.18;;;10.18;;
840;SDS011;406;48.566;13.450;2023-12-20T01:12:17;10.63;;;9.63;;
840;SDS011;406;48.566;13.450;2023-12-20T01:14:43;11.38;;;10.35;;
840;SDS011;406;48.566;13.450;2023-12-20T01:17:10;11.88;;;10.77;;
840;SDS011;406;48.566;13.450;2023-12-20T01:19:36;11.68;;;10.57;;
840;SDS011;406;48.566;13.450;2023-12-20T01:22:03;12.30;;;10.65;;
840;SDS011;406;48.566;13.450;2023-12-20T01:24:30;12.10;;;10.90;;
840;SDS011;406;48.566;13.450;2023-12-20T01:26:57;11.95;;;10.82;;
840;SDS011;406;48.566;13.450;2023-12-20T01:29:23;12.35;;;10.95;;
840;SDS011;406;48.566;13.450;2023-12-20T01:31:50;12.05;;;9.77;;
840;SDS011;406;48.566;13.450;2023-12-20T01:34:17;12.98;;;11.25;;
840;SDS011;406;48.566;13.450;2023-12-20T01:36:44;11.07;;;9.73;;
840;SDS011;406;48.566;13.450;2023-12-20T01:39:10;12.63;;;10.93;;
840;SDS011;406;48.566;13.450;2023-12-20T01:41:50;13.20;;;11.85;;
840;SDS011;406;48.566;13.450;2023-12-20T01:44:17;11.50;;;10.40;;
840;SDS011;406;48.566;13.450;2023-12-20T01:46:43;11.73;;;10.52;;
840;SDS011;406;48.566;13.450;2023-12-20T01:49:10;11.50;;;10.30;;
840;SDS011;406;48.566;13.450;2023-12-20T01:51:37;13.80;;;12.32;;
840;SDS011;406;48.566;13.450;2023-12-20T01:54:03;11.40;;;10.30;;
840;SDS011;406;48.566;13.450;2023-12-20T01:56:31;11.02;;;10.00;;
840;SDS011;406;48.566;13.450;2023-12-20T01:58:57;11.30;;;10.18;;
840;SDS011;406;48.566;13.450;2023-12-20T02:01:24;10.65;;;9.55;;
840;SDS011;406;48.566;13.450;2023-12-20T02:03:51;10.30;;;9.25;;
840;SDS011;406;48.566;13.450;2023-12-20T02:06:18;10.88;;;9.85;;
840;SDS011;406;48.566;13.450;2023-12-20T02:08:44;11.05;;;9.95;;
840;SDS011;406;48.566;13.450;2023-12-20T02:11:11;11.07;;;9.98;;
840;SDS011;406;48.566;13.450;2023-12-20T02:13:38;10.07;;;9.07;;
840;SDS011;406;48.566;13.450;2023-12-20T02:16:04;10.85;;;9.70;;
840;SDS011;406;48.566;13.450;2023-12-20T02:18:31;11.38;;;8.75;;
840;SDS011;406;48.566;13.450;2023-12-20T02:20:58;10.85;;;9.30;;
840;SDS011;406;48.566;13.450;2023-12-20T02:23:25;10.68;;;9.57;;
840;SDS011;406;48.566;13.450;2023-12-20T02:25:51;11.07;;;9.93;;
840;SDS011;406;48.566;13.450;2023-12-20T02:28:18;11.45;;;10.25;;
840;SDS011;406;48.566;13.450;2023-12-20T02:30:45;10.52;;;9.52;;
840;SDS011;406;48.566;13.450;2023-12-20T02:33:12;11.75;;;10.50;;
840;SDS011;406;48.566;13.450;2023-12-20T02:35:38;12.65;;;10.50;;
840;SDS011;406;48.566;13.450;2023-12-20T02:38:05;12.27;;;10.60;;
840;SDS011;406;48.566;13.450;2023-12-20T02:40:31;12.05;;;10.88;;
840;SDS011;406;48.566;13.450;2023-12-20T02:42:58;13.20;;;11.80;;
840;SDS011;406;48.566;13.450;2023-12-20T02:45:25;14.40;;;12.90;;
840;SDS011;406;48.566;13.450;2023-12-20T02:47:53;12.60;;;11.30;;
840;SDS011;406;48.566;13.450;2023-12-20T02:50:19;13.18;;;10.88;;
840;SDS011;406;48.566;13.450;2023-12-20T02:52:46;12.20;;;10.40;;
840;SDS011;406;48.566;13.450;2023-12-20T02:55:12;14.35;;;12.90;;
840;SDS011;406;48.566;13.450;2023-12-20T02:57:39;14.38;;;12.88;;
840;SDS011;406;48.566;13.450;2023-12-20T03:00:09;12.90;;;11.23;;
840;SDS011;406;48.566;13.450;2023-12-20T03:02:36;13.88;;;11.43;;
840;SDS011;406;48.566;13.450;2023-12-20T03:05:03;13.73;;;11.23;;
840;SDS011;406;48.566;13.450;2023-12-20T03:07:30;11.70;;;10.60;;
840;SDS011;406;48.566;13.450;2023-12-20T03:09:56;11.88;;;10.73;;
840;SDS011;406;48.566;13.450;2023-12-20T03:12:43;13.98;;;11.50;;
840;SDS011;406;48.566;13.450;2023-12-20T03:15:10;13.43;;;10.70;;
840;SDS011;406;48.566;13.450;2023-12-20T03:17:36;15.43;;;11.57;;
840;SDS011;406;48.566;13.450;2023-12-20T03:20:03;11.38;;;10.05;;
840;SDS011;406;48.566;13.450;2023-12-20T03:22:30;12.05;;;10.90;;
840;SDS011;406;48.566;13.450;2023-12-20T03:24:57;11.82;;;10.52;;
840;SDS011;406;48.566;13.450;2023-12-20T03:27:23;12.68;;;11.38;;
840;SDS011;406;48.566;13.450;2023-12-20T03:29:50;12.82;;;11.10;;
840;SDS011;406;48.566;13.450;2023-12-20T03:32:16;11.10;;;10.00;;
840;SDS011;406;48.566;13.450;2023-12-20T03:34:43;13.80;;;12.07;;
840;SDS011;406;48.566;13.450;2023-12-20T03:37:10;13.50;;;11.23;;
840;SDS011;406;48.566;13.450;2023-12-20T03:39:36;14.15;;;10.85;;
840;SDS011;406;48.566;13.450;2023-12-20T03:42:03;12.52;;;9.77;;
840;SDS011;406;48.566;13.450;2023-12-20T03:44:30;11.32;;;10.23;;
840;SDS011;406;48.566;13.450;2023-12-20T03:46:56;11.50;;;10.05;;
840;SDS011;406;48.566;13.450;2023-12-20T03:49:23;11.25;;;10.15;;
840;SDS011;406;48.566;13.450;2023-12-20T03:51:49;11.57;;;10.38;;
840;SDS011;406;48.566;13.450;2023-12-20T03:54:16;12.43;;;9.77;;
840;SDS011;406;48.566;13.450;2023-12-20T03:56:42;11.43;;;10.32;;
840;SDS011;406;48.566;13.450;2023-12-20T03:59:09;12.35;;;11.05;;
840;SDS011;406;48.566;13.450;2023-12-20T04:01:35;12.02;;;10.77;;
840;SDS011;406;48.566;13.450;2023-12-20T04:04:02;11.38;;;10.10;;
840;SDS011;406;48.566;13.450;2023-12-20T04:06:29;10.95;;;9.85;;
840;SDS011;406;48.566;13.450;2023-12-20T04:08:56;11.40;;;10.25;;
840;SDS011;406;48.566;13.450;2023-12-20T04:11:22;11.05;;;10.00;;
840;SDS011;406;48.566;13.450;2023-12-20T04:13:49;13.52;;;12.15;;
840;SDS011;406;48.566;13.450;2023-12-20T04:16:15;13.77;;;11.75;;
840;SDS011;406;48.566;13.450;2023-12-20T04:18:42;11.90;;;10.88;;
840;SDS011;406;48.566;13.450;2023-12-20T04:21:09;13.77;;;12.10;;
840;SDS011;406;48.566;13.450;2023-12-20T04:23:35;12.23;;;10.93;;
840;SDS011;406;48.566;13.450;2023-12-20T04:26:02;15.23;;;12.82;;
840;SDS011;406;48.566;13.450;2023-12-20T04:28:28;14.52;;;12.98;;
840;SDS011;406;48.566;13.450;2023-12-20T04:30:58;13.80;;;12.40;;
840;SDS011;406;48.566;13.450;2023-12-20T04:33:25;13.15;;;11.73;;
840;SDS011;406;48.566;13.450;2023-12-20T04:35:51;14.43;;;12.32;;
840;SDS011;406;48.566;13.450;2023-12-20T04:38:18;14.55;;;13.00;;
840;SDS011;406;48.566;13.450;2023-12-20T04:40:44;12.75;;;11.43;;
840;SDS011;406;48.566;13.450;2023-12-20T04:43:11;13.85;;;11.80;;
840;SDS011;406;48.566;13.450;2023-12-20T04:45:37;13.02;;;11.73;;
840;SDS011;406;48.566;13.450;2023-12-20T04:48:04;14.25;;;12.75;;
840;SDS011;406;48.566;13.450;2023-12-20T04:50:31;13.95;;;12.55;;
840;SDS011;406;48.566;13.450;2023-12-20T04:52:58;16.10;;;14.40;;
840;SDS011;406;48.566;13.450;2023-12-20T04:55:24;14.90;;;12.88;;
840;SDS011;406;48.566;13.450;2023-12-20T04:57:51;12.95;;;11.65;;
840;SDS011;406;48.566;13.450;2023-12-20T05:00:17;13.57;;;12.15;;
840;SDS011;406;48.566;13.450;2023-12-20T05:02:44;15.32;;;12.75;;
840;SDS011;406;48.566;13.450;2023-12-20T05:05:10;14.10;;;12.63;;
840;SDS011;406;48.566;13.450;2023-12-20T05:07:37;16.50;;;13.85;;
840;SDS011;406;48.566;13.450;2023-12-20T05:10:04;15.43;;;13.32;;
840;SDS011;406;48.566;13.450;2023-12-20T05:12:31;16.50;;;13.63;;
840;SDS011;406;48.566;13.450;2023-12-20T05:14:57;15.65;;;13.95;;
840;SDS011;406;48.566;13.450;2023-12-20T05:17:24;15.55;;;13.23;;
840;SDS011;406;48.566;13.450;2023-12-20T05:19:50;14.90;;;13.30;;
840;SDS011;406;48.566;13.450;2023-12-20T05:22:17;16.05;;;14.35;;
840;SDS011;406;48.566;13.450;2023-12-20T05:24:45;16.88;;;14.93;;
840;SDS011;406;48.566;13.450;2023-12-20T05:27:12;16.65;;;14.18;;
840;SDS011;406;48.566;13.450;2023-12-20T05:29:38;19.20;;;15.05;;
840;SDS011;406;48.566;13.450;2023-12-20T05:32:05;15.10;;;13.60;;
840;SDS011;406;48.566;13.450;2023-12-20T05:34:31;16.30;;;14.57;;
840;SDS011;406;48.566;13.450;2023-12-20T05:36:58;17.23;;;15.00;;
840;SDS011;406;48.566;13.450;2023-12-20T05:39:25;15.88;;;14.00;;
840;SDS011;406;48.566;13.450;2023-12-20T05:41:52;17.00;;;13.70;;
840;SDS011;406;48.566;13.450;2023-12-20T05:44:18;15.57;;;14.02;;
840;SDS011;406;48.566;13.450;2023-12-20T05:46:45;14.35;;;12.90;;
840;SDS011;406;48.566;13.450;2023-12-20T05:49:11;15.70;;;14.13;;
840;SDS011;406;48.566;13.450;2023-12-20T05:51:38;17.63;;;14.43;;
840;SDS011;406;48.566;13.450;2023-12-20T05:54:05;16.50;;;14.77;;
840;SDS011;406;48.566;13.450;2023-12-20T05:56:31;16.90;;;13.65;;
840;SDS011;406;48.566;13.450;2023-12-20T05:58:58;16.92;;;14.77;;
840;SDS011;406;48.566;13.450;2023-12-20T06:01:25;17.30;;;15.25;;
840;SDS011;406;48.566;13.450;2023-12-20T06:03:51;16.40;;;14.38;;
840;SDS011;406;48.566;13.450;2023-12-20T06:06:18;16.42;;;13.82;;
840;SDS011;406;48.566;13.450;2023-12-20T06:08:45;21.38;;;15.10;;
840;SDS011;406;48.566;13.450;2023-12-20T06:11:11;17.35;;;14.20;;
840;SDS011;406;48.566;13.450;2023-12-20T06:13:40;17.02;;;13.38;;
840;SDS011;406;48.566;13.450;2023-12-20T06:16:07;16.08;;;14.38;;
840;SDS011;406;48.566;13.450;2023-12-20T06:18:34;19.60;;;14.40;;
840;SDS011;406;48.566;13.450;2023-12-20T06:21:01;17.38;;;15.52;;
840;SDS011;406;48.566;13.450;2023-12-20T06:23:28;15.10;;;13.18;;
840;SDS011;406;48.566;13.450;2023-12-20T06:25:55;19.75;;;15.48;;
840;SDS011;406;48.566;13.450;2023-12-20T06:28:21;18.10;;;14.90;;
840;SDS011;406;48.566;13.450;2023-12-20T06:30:48;16.60;;;14.27;;
840;SDS011;406;48.566;13.450;2023-12-20T06:33:16;17.27;;;15.48;;
840;SDS011;406;48.566;13.450;2023-12-20T06:35:42;16.17;;;14.43;;
840;SDS011;406;48.566;13.450;2023-12-20T06:38:09;17.08;;;15.38;;
840;SDS011;406;48.566;13.450;2023-12-20T06:40:35;17.55;;;15.75;;
840;SDS011;406;48.566;13.450;2023-12-20T06:43:02;17.35;;;15.55;;
840;SDS011;406;48.566;13.450;2023-12-20T06:45:41;17.08;;;15.07;;
840;SDS011;406;48.566;13.450;2023-12-20T06:48:08;16.00;;;14.27;;
840;SDS011;406;48.566;13.450;2023-12-20T06:50:37;15.88;;;14.15;;
840;SDS011;406;48.566;13.450;2023-12-20T06:53:06;16.88;;;15.18;;
840;SDS011;406;48.566;13.450;2023-12-20T06:55:34;17.05;;;15.30;;
840;SDS011;406;48.566;13.450;2023-12-20T06:58:01;18.65;;;15.63;;
840;SDS011;406;48.566;13.450;2023-12-20T07:00:28;16.80;;;15.07;;
840;SDS011;406;48.566;13.450;2023-12-20T07:02:55;15.55;;;14.05;;
840;SDS011;406;48.566;13.450;2023-12-20T07:05:22;15.60;;;13.82;;
840;SDS011;406;48.566;13.450;2023-12-20T07:07:48;14.48;;;12.98;;
840;SDS011;406;48.566;13.450;2023-12-20T07:10:15;17.27;;;14.90;;
840;SDS011;406;48.566;13.450;2023-12-20T07:12:42;16.90;;;14.95;;
840;SDS011;406;48.566;13.450;2023-12-20T07:15:09;16.88;;;14.95;;
840;SDS011;406;48.566;13.450;2023-12-20T07:17:35;17.70;;;15.43;;
840;SDS011;406;48.566;13.450;2023-12-20T07:20:02;16.40;;;14.70;;
840;SDS011;406;48.566;13.450;2023-12-20T07:22:30;16.80;;;15.02;;
840;SDS011;406;48.566;13.450;2023-12-20T07:25:00;15.93;;;14.30;;
840;SDS011;406;48.566;13.450;2023-12-20T07:27:27;15.23;;;13.63;;
840;SDS011;406;48.566;13.450;2023-12-20T07:29:53;16.52;;;13.40;;
840;SDS011;406;48.566;13.450;2023-12-20T07:32:20;16.33;;;13.70;;
840;SDS011;406;48.566;13.450;2023-12-20T07:34:46;14.90;;;13.00;;
840;SDS011;406;48.566;13.450;2023-12-20T07:37:13;16.85;;;13.90;;
840;SDS011;406;48.566;13.450;2023-12-20T07:39:40;15.27;;;13.73;;
840;SDS011;406;48.566;13.450;2023-12-20T07:42:07;14.63;;;13.02;;
840;SDS011;406;48.566;13.450;2023-12-20T07:44:34;16.63;;;14.70;;
840;SDS011;406;48.566;13.450;2023-12-20T07:47:02;15.30;;;13.68;;
840;SDS011;406;48.566;13.450;2023-12-20T07:49:28;15.45;;;13.85;;
840;SDS011;406;48.566;13.450;2023-12-20T07:51:56;18.17;;;14.30;;
840;SDS011;406;48.566;13.450;2023-12-20T07:54:22;15.30;;;13.27;;
840;SDS011;406;48.566;13.450;2023-12-20T07:56:49;16.58;;;13.30;;
840;SDS011;406;48.566;13.450;2023-12-20T07:59:15;15.05;;;13.45;;
840;SDS011;406;48.566;13.450;2023-12-20T08:01:55;15.13;;;12.75;;
840;SDS011;406;48.566;13.450;2023-12-20T08:04:22;14.52;;;13.02;;
840;SDS011;406;48.566;13.450;2023-12-20T08:06:48;15.10;;;12.27;;
840;SDS011;406;48.566;13.450;2023-12-20T08:09:15;15.02;;;13.45;;
840;SDS011;406;48.566;13.450;2023-12-20T08:11:45;14.02;;;12.60;;
840;SDS011;406;48.566;13.450;2023-12-20T08:14:12;16.20;;;14.20;;
840;SDS011;406;48.566;13.450;2023-12-20T08:16:39;15.95;;;13.88;;
840;SDS011;406;48.566;13.450;2023-12-20T08:19:06;17.25;;;13.18;;
840;SDS011;406;48.566;13.450;2023-12-20T08:21:32;18.10;;;14.10;;
840;SDS011;406;48.566;13.450;2023-12-20T08:24:03;15.32;;;13.75;;
840;SDS011;406;48.566;13.450;2023-12-20T08:26:30;15.57;;;13.95;;
840;SDS011;406;48.566;13.450;2023-12-20T08:28:56;14.73;;;13.23;;
840;SDS011;406;48.566;13.450;2023-12-20T08:31:27;17.25;;;13.00;;
840;SDS011;406;48.566;13.450;2023-12-20T08:33:54;16.52;;;13.95;;
840;SDS011;406;48.566;13.450;2023-12-20T08:36:21;15.55;;;13.90;;
840;SDS011;406;48.566;13.450;2023-12-20T08:38:49;16.17;;;13.30;;
840;SDS011;406;48.566;13.450;2023-12-20T08:41:18;16.83;;;14.70;;
840;SDS011;406;48.566;13.450;2023-12-20T08:43:46;15.98;;;14.38;;
840;SDS011;406;48.566;13.450;2023-12-20T08:46:14;15.18;;;13.57;;
840;SDS011;406;48.566;13.450;2023-12-20T08:48:40;17.13;;;13.45;;
840;SDS011;406;48.566;13.450;2023-12-20T08:51:07;14.68;;;13.10;;
840;SDS011;406;48.566;13.450;2023-12-20T08:53:35;14.67;;;13.10;;
840;SDS011;406;48.566;13.450;2023-12-20T08:56:01;15.55;;;13.93;;
840;SDS011;406;48.566;13.450;2023-12-20T08:58:28;17.65;;;15.25;;
840;SDS011;406;48.566;13.450;2023-12-20T09:00:55;16.33;;;14.50;;
840;SDS011;406;48.566;13.450;2023-12-20T09:03:22;15.88;;;14.20;;
840;SDS011;406;48.566;13.450;2023-12-20T09:05:48;15.70;;;13.95;;
840;SDS011;406;48.566;13.450;2023-12-20T09:08:15;16.17;;;13.97;;
840;SDS011;406;48.566;13.450;2023-12-20T09:10:41;16.05;;;13.90;;
840;SDS011;406;48.566;13.450;2023-12-20T09:13:08;15.30;;;12.95;;
840;SDS011;406;48.566;13.450;2023-12-20T09:15:34;15.50;;;13.50;;
840;SDS011;406;48.566;13.450;2023-12-20T09:18:02;14.60;;;13.10;;
840;SDS011;406;48.566;13.450;2023-12-20T09:20:30;14.60;;;11.82;;
840;SDS011;406;48.566;13.450;2023-12-20T09:22:57;12.43;;;11.10;;
840;SDS011;406;48.566;13.450;2023-12-20T09:25:23;13.02;;;11.68;;
840;SDS011;406;48.566;13.450;2023-12-20T09:27:52;15.50;;;12.10;;
840;SDS011;406;48.566;13.450;2023-12-20T09:30:19;15.13;;;12.70;;
840;SDS011;406;48.566;13.450;2023-12-20T09:32:53;13.50;;;12.10;;
840;SDS011;406;48.566;13.450;2023-12-20T09:35:20;11.83;;;10.60;;
840;SDS011;406;48.566;13.450;2023-12-20T09:37:47;13.13;;;10.60;;
840;SDS011;406;48.566;13.450;2023-12-20T09:40:13;11.27;;;10.07;;
840;SDS011;406;48.566;13.450;2023-12-20T09:45:13;7.87;;;7.07;;
840;SDS011;406;48.566;13.450;2023-12-20T09:47:43;10.77;;;8.15;;
840;SDS011;406;48.566;13.450;2023-12-20T09:50:10;8.30;;;7.23;;
840;SDS011;406;48.566;13.450;2023-12-20T09:52:37;8.90;;;7.77;;
840;SDS011;406;48.566;13.450;2023-12-20T09:55:05;6.13;;;5.53;;
840;SDS011;406;48.566;13.450;2023-12-20T09:57:33;5.32;;;4.53;;
840;SDS011;406;48.566;13.450;2023-12-20T10:00:00;5.45;;;4.30;;
840;SDS011;406;48.566;13.450;2023-12-20T10:02:26;5.10;;;4.60;;
840;SDS011;406;48.566;13.450;2023-12-20T10:04:54;6.50;;;5.82;;
840;SDS011;406;48.566;13.450;2023-12-20T10:07:21;5.60;;;5.00;;
840;SDS011;406;48.566;13.450;2023-12-20T10:09:48;5.87;;;5.27;;
840;SDS011;406;48.566;13.450;2023-12-20T10:12:18;4.57;;;4.17;;
840;SDS011;406;48.566;13.450;2023-12-20T10:14:44;6.40;;;3.97;;
840;SDS011;406;48.566;13.450;2023-12-20T10:17:11;4.33;;;3.90;;
840;SDS011;406;48.566;13.450;2023-12-20T10:19:38;7.13;;;3.77;;
840;SDS011;406;48.566;13.450;2023-12-20T10:22:04;4.20;;;3.80;;
840;SDS011;406;48.566;13.450;2023-12-20T10:24:31;5.70;;;4.10;;
840;SDS011;406;48.566;13.450;2023-12-20T10:27:07;4.32;;;3.92;;
840;SDS011;406;48.566;13.450;2023-12-20T10:29:35;4.67;;;3.73;;
840;SDS011;406;48.566;13.450;2023-12-20T10:34:51;4.03;;;3.60;;
840;SDS011;406;48.566;13.450;2023-12-20T10:37:18;3.80;;;3.40;;
840;SDS011;406;48.566;13.450;2023-12-20T10:39:49;3.40;;;3.07;;
840;SDS011;406;48.566;13.450;2023-12-20T10:42:20;4.90;;;3.90;;
840;SDS011;406;48.566;13.450;2023-12-20T10:44:51;7.67;;;3.37;;
840;SDS011;406;48.566;13.450;2023-12-20T10:47:17;4.30;;;3.67;;
840;SDS011;406;48.566;13.450;2023-12-20T10:49:45;3.57;;;3.00;;
840;SDS011;406;48.566;13.450;2023-12-20T10:52:12;3.67;;;3.27;;
840;SDS011;406;48.566;13.450;2023-12-20T10:54:39;3.10;;;2.80;;
840;SDS011;406;48.566;13.450;2023-12-20T10:57:06;3.87;;;3.47;;
840;SDS011;406;48.566;13.450;2023-12-20T10:59:33;3.17;;;2.87;;
840;SDS011;406;48.566;13.450;2023-12-20T11:02:03;3.23;;;2.93;;
840;SDS011;406;48.566;13.450;2023-12-20T11:04:39;3.30;;;2.10;;
840;SDS011;406;48.566;13.450;2023-12-20T11:07:23;2.40;;;2.20;;
840;SDS011;406;48.566;13.450;2023-12-20T11:10:07;3.17;;;2.87;;
840;SDS011;406;48.566;13.450;2023-12-20T11:12:41;3.30;;;3.00;;
840;SDS011;406;48.566;13.450;2023-12-20T11:15:12;4.50;;;2.83;;
840;SDS011;406;48.566;13.450;2023-12-20T11:17:40;4.13;;;3.33;;
840;SDS011;406;48.566;13.450;2023-12-20T11:20:14;3.17;;;2.87;;
840;SDS011;406;48.566;13.450;2023-12-20T11:22:51;2.63;;;2.43;;
840;SDS011;406;48.566;13.450;2023-12-20T11:25:19;2.93;;;2.63;;
840;SDS011;406;48.566;13.450;2023-12-20T11:28:06;2.83;;;2.40;;
840;SDS011;406;48.566;13.450;2023-12-20T11:30:46;3.00;;;2.53;;
840;SDS011;406;48.566;13.450;2023-12-20T11:33:14;3.93;;;2.50;;
840;SDS011;406;48.566;13.450;2023-12-20T11:35:42;3.30;;;3.00;;
840;SDS011;406;48.566;13.450;2023-12-20T11:38:09;3.20;;;2.30;;
840;SDS011;406;48.566;13.450;2023-12-20T11:40:36;2.40;;;2.17;;
840;SDS011;406;48.566;13.450;2023-12-20T11:43:03;3.20;;;2.90;;
840;SDS011;406;48.566;13.450;2023-12-20T11:45:33;3.73;;;2.67;;
840;SDS011;406;48.566;13.450;2023-12-20T11:48:04;2.77;;;2.53;;
840;SDS011;406;48.566;13.450;2023-12-20T11:50:31;3.07;;;2.77;;
840;SDS011;406;48.566;13.450;2023-12-20T11:52:57;3.17;;;2.57;;
840;SDS011;406;48.566;13.450;2023-12-20T11:55:24;3.47;;;2.80;;
840;SDS011;406;48.566;13.450;2023-12-20T11:57:51;3.20;;;2.90;;
840;SDS011;406;48.566;13.450;2023-12-20T12:00:18;3.23;;;2.70;;
840;SDS011;406;48.566;13.450;2023-12-20T12:02:55;3.70;;;2.93;;
840;SDS011;406;48.566;13.450;2023-12-20T12:05:24;4.93;;;3.13;;
840;SDS011;406;48.566;13.450;2023-12-20T12:07:51;5.00;;;3.23;;
840;SDS011;406;48.566;13.450;2023-12-20T12:10:17;3.53;;;3.20;;
840;SDS011;406;48.566;13.450;2023-12-20T12:12:44;3.10;;;2.63;;
840;SDS011;406;48.566;13.450;2023-12-20T12:15:11;3.90;;;2.70;;
840;SDS011;406;48.566;13.450;2023-12-20T12:17:37;2.90;;;2.57;;
840;SDS011;406;48.566;13.450;2023-12-20T12:20:05;2.73;;;2.53;;
840;SDS011;406;48.566;13.450;2023-12-20T12:22:32;3.03;;;2.83;;
840;SDS011;406;48.566;13.450;2023-12-20T12:25:09;3.30;;;3.00;;
840;SDS011;406;48.566;13.450;2023-12-20T12:27:36;3.90;;;3.37;;
840;SDS011;406;48.566;13.450;2023-12-20T12:30:04;3.93;;;3.20;;
840;SDS011;406;48.566;13.450;2023-12-20T12:32:34;4.23;;;2.70;;
840;SDS011;406;48.566;13.450;2023-12-20T12:35:02;4.30;;;3.40;;
840;SDS011;406;48.566;13.450;2023-12-20T12:37:30;4.00;;;2.57;;
840;SDS011;406;48.566;13.450;2023-12-20T12:39:57;3.03;;;2.80;;
840;SDS011;406;48.566;13.450;2023-12-20T12:42:24;4.30;;;2.50;;
840;SDS011;406;48.566;13.450;2023-12-20T12:44:54;3.47;;;2.13;;
840;SDS011;406;48.566;13.450;2023-12-20T12:47:22;1.90;;;1.53;;
840;SDS011;406;48.566;13.450;2023-12-20T12:49:49;2.43;;;1.47;;
840;SDS011;406;48.566;13.450;2023-12-20T12:52:17;2.07;;;1.40;;
840;SDS011;406;48.566;13.450;2023-12-20T12:54:44;1.90;;;1.50;;
840;SDS011;406;48.566;13.450;2023-12-20T12:57:11;1.50;;;1.20;;
840;SDS011;406;48.566;13.450;2023-12-20T12:59:38;1.63;;;1.40;;
840;SDS011;406;48.566;13.450;2023-12-20T13:02:06;2.90;;;1.30;;
840;SDS011;406;48.566;13.450;2023-12-20T13:04:33;1.97;;;1.50;;
840;SDS011;406;48.566;13.450;2023-12-20T13:07:00;2.13;;;1.67;;
840;SDS011;406;48.566;13.450;2023-12-20T13:09:26;2.63;;;1.50;;
840;SDS011;406;48.566;13.450;2023-12-20T13:11:53;2.40;;;1.60;;
840;SDS011;406;48.566;13.450;2023-12-20T13:14:21;2.90;;;2.07;;
840;SDS011;406;48.566;13.450;2023-12-20T13:16:48;2.10;;;1.90;;
840;SDS011;406;48.566;13.450;2023-12-20T13:19:14;2.03;;;1.83;;
840;SDS011;406;48.566;13.450;2023-12-20T13:21:41;1.93;;;1.80;;
840;SDS011;406;48.566;13.450;2023-12-20T13:24:07;2.50;;;2.10;;
840;SDS011;406;48.566;13.450;2023-12-20T13:26:34;2.77;;;2.20;;
840;SDS011;406;48.566;13.450;2023-12-20T13:29:00;2.20;;;2.00;;
840;SDS011;406;48.566;13.450;2023-12-20T13:31:27;3.40;;;2.20;;
840;SDS011;406;48.566;13.450;2023-12-20T13:33:54;2.10;;;1.90;;
840;SDS011;406;48.566;13.450;2023-12-20T13:36:21;3.27;;;2.67;;
840;SDS011;406;48.566;13.450;2023-12-20T13:38:48;3.10;;;2.67;;
840;SDS011;406;48.566;13.450;2023-12-20T13:41:14;3.80;;;2.30;;
840;SDS011;406;48.566;13.450;2023-12-20T13:43:41;5.23;;;2.70;;
840;SDS011;406;48.566;13.450;2023-12-20T13:46:08;2.23;;;2.03;;
840;SDS011;406;48.566;13.450;2023-12-20T13:48:35;2.37;;;1.97;;
840;SDS011;406;48.566;13.450;2023-12-20T13:51:02;2.40;;;1.60;;
840;SDS011;406;48.566;13.450;2023-12-20T13:53:29;2.80;;;2.00;;
840;SDS011;406;48.566;13.450;2023-12-20T13:55:55;2.43;;;2.13;;
840;SDS011;406;48.566;13.450;2023-12-20T13:58:22;4.20;;;2.10;;
840;SDS011;406;48.566;13.450;2023-12-20T14:00:49;3.07;;;2.10;;
840;SDS011;406;48.566;13.450;2023-12-20T14:03:15;2.57;;;1.93;;
840;SDS011;406;48.566;13.450;2023-12-20T14:05:42;2.77;;;2.10;;
840;SDS011;406;48.566;13.450;2023-12-20T14:08:08;6.73;;;2.17;;
840;SDS011;406;48.566;13.450;2023-12-20T14:10:36;3.43;;;2.10;;
840;SDS011;406;48.566;13.450;2023-12-20T14:13:03;3.13;;;2.17;;
840;SDS011;406;48.566;13.450;2023-12-20T14:15:29;2.50;;;1.97;;
840;SDS011;406;48.566;13.450;2023-12-20T14:17:56;2.30;;;1.83;;
840;SDS011;406;48.566;13.450;2023-12-20T14:20:23;2.87;;;1.97;;
840;SDS011;406;48.566;13.450;2023-12-20T14:22:49;3.00;;;2.17;;
840;SDS011;406;48.566;13.450;2023-12-20T14:25:16;2.70;;;1.73;;
840;SDS011;406;48.566;13.450;2023-12-20T14:27:43;2.37;;;2.00;;
840;SDS011;406;48.566;13.450;2023-12-20T14:30:13;3.33;;;1.97;;
840;SDS011;406;48.566;13.450;2023-12-20T14:32:41;2.83;;;2.10;;
840;SDS011;406;48.566;13.450;2023-12-20T14:35:08;3.50;;;2.40;;
840;SDS011;406;48.566;13.450;2023-12-20T14:37:35;3.30;;;1.97;;
840;SDS011;406;48.566;13.450;2023-12-20T14:40:08;2.40;;;1.93;;
840;SDS011;406;48.566;13.450;2023-12-20T14:42:43;3.03;;;1.93;;
840;SDS011;406;48.566;13.450;2023-12-20T14:45:10;2.90;;;1.97;;
840;SDS011;406;48.566;13.450;2023-12-20T14:47:36;2.20;;;1.77;;
840;SDS011;406;48.566;13.450;2023-12-20T14:50:03;3.07;;;1.90;;
840;SDS011;406;48.566;13.450;2023-12-20T14:52:31;1.60;;;1.50;;
840;SDS011;406;48.566;13.450;2023-12-20T14:55:00;3.90;;;2.17;;
840;SDS011;406;48.566;13.450;2023-12-20T14:57:29;3.73;;;1.80;;
840;SDS011;406;48.566;13.450;2023-12-20T14:59:58;3.20;;;2.10;;
840;SDS011;406;48.566;13.450;2023-12-20T15:02:24;3.88;;;2.20;;
840;SDS011;406;48.566;13.450;2023-12-20T15:04:51;3.40;;;1.90;;
840;SDS011;406;48.566;13.450;2023-12-20T15:07:18;5.57;;;2.00;;
840;SDS011;406;48.566;13.450;2023-12-20T15:09:45;2.87;;;2.00;;
840;SDS011;406;48.566;13.450;2023-12-20T15:12:13;2.47;;;1.97;;
840;SDS011;406;48.566;13.450;2023-12-20T15:14:40;2.10;;;1.90;;
840;SDS011;406;48.566;13.450;2023-12-20T15:17:06;2.50;;;1.83;;
840;SDS011;406;48.566;13.450;2023-12-20T15:19:33;2.70;;;2.00;;